createdAt,value
2022-12-09T00:01:10.716Z,67245.53
2022-12-09T00:03:39.130Z,67244.41
2022-12-09T00:06:24.353Z,67239.53
2022-12-09T00:08:52.425Z,67244.94
2022-12-09T00:11:20.942Z,67256.56
2022-12-09T00:13:52.887Z,67257.31
2022-12-09T00:16:21.240Z,67253.16
2022-12-09T00:18:49.470Z,67246.50
2022-12-09T00:21:28.608Z,67246.31
2022-12-09T00:23:57.589Z,67242.16
2022-12-09T00:26:26.600Z,67243.63
2022-12-09T00:28:55.612Z,67235.81
2022-12-09T00:31:32.737Z,67242.69
2022-12-09T00:34:03.662Z,67245.88
2022-12-09T00:36:31.024Z,67241.59
2022-12-09T00:38:59.183Z,67238.78
2022-12-09T00:41:27.514Z,67241.00
2022-12-09T00:43:55.052Z,67247.22
2022-12-09T00:46:22.751Z,67245.38
2022-12-09T00:48:50.441Z,67250.56
2022-12-09T00:51:20.441Z,67257.69
2022-12-09T00:53:48.307Z,67258.25
2022-12-09T00:56:15.430Z,67257.88
2022-12-09T00:58:42.967Z,67256.78
2022-12-09T01:01:10.130Z,67256.78
2022-12-09T01:03:37.656Z,67256.19
2022-12-09T01:06:10.194Z,67256.19
2022-12-09T01:08:39.324Z,67254.16
2022-12-09T01:11:12.663Z,67253.94
2022-12-09T01:13:40.045Z,67250.78
2022-12-09T01:16:15.712Z,67252.25
2022-12-09T01:18:43.380Z,67252.25
2022-12-09T01:21:10.612Z,67250.56
2022-12-09T01:23:37.833Z,67243.69
2022-12-09T01:26:06.902Z,67247.41
2022-12-09T01:28:36.620Z,67252.84
2022-12-09T01:31:07.284Z,67256.56
2022-12-09T01:33:34.786Z,67248.31
2022-12-09T01:36:08.582Z,67248.69
2022-12-09T01:38:36.346Z,67250.38
2022-12-09T01:41:06.630Z,67244.94
2022-12-09T01:43:34.071Z,67243.28
2022-12-09T01:46:01.622Z,67242.00
2022-12-09T01:48:44.770Z,67241.44
2022-12-09T01:51:19.568Z,67242.56
2022-12-09T01:53:50.836Z,67246.63
2022-12-09T01:56:29.284Z,67240.69
2022-12-09T01:59:00.643Z,67238.78
2022-12-09T02:01:28.472Z,67236.53
2022-12-09T02:03:56.214Z,67234.84
2022-12-09T02:06:23.887Z,67237.84
2022-12-09T02:08:51.846Z,67240.81
2022-12-09T02:11:37.040Z,67234.28
2022-12-09T02:14:14.723Z,67238.34
2022-12-09T02:17:05.213Z,67227.38
2022-12-09T02:19:51.418Z,67230.19
2022-12-09T02:22:26.676Z,67235.06
2022-12-09T02:25:11.348Z,67238.41
2022-12-09T02:27:48.697Z,67245.31
2022-12-09T02:30:20.474Z,67236.31
2022-12-09T02:33:13.450Z,67232.59
2022-12-09T02:35:59.806Z,67236.88
2022-12-09T02:38:31.946Z,67231.69
2022-12-09T02:41:02.236Z,67235.38
2022-12-09T02:43:35.499Z,67241.59
2022-12-09T02:46:05.403Z,67238.41
2022-12-09T02:48:39.018Z,67242.50
2022-12-09T02:51:10.290Z,67246.84
2022-12-09T02:53:40.830Z,67261.63
2022-12-09T02:56:09.806Z,67246.63
2022-12-09T02:58:37.394Z,67249.47
2022-12-09T03:01:05.245Z,67244.41
2022-12-09T03:03:35.093Z,67234.84
2022-12-09T03:06:10.174Z,67227.88
2022-12-09T03:08:57.448Z,67221.34
2022-12-09T03:11:26.521Z,67222.47
2022-12-09T03:13:59.398Z,67217.06
2022-12-09T03:17:14.482Z,67220.56
2022-12-09T03:19:51.037Z,67214.03
2022-12-09T03:22:23.526Z,67215.72
2022-12-09T03:25:11.148Z,67218.53
2022-12-09T03:27:40.720Z,67216.31
2022-12-09T03:30:11.268Z,67214.81
2022-12-09T03:32:44.487Z,67217.41
2022-12-09T03:35:26.755Z,67217.97
2022-12-09T03:37:54.487Z,67222.25
2022-12-09T03:40:26.231Z,67221.16
2022-12-09T03:42:58.944Z,67223.94
2022-12-09T03:45:27.191Z,67213.13
2022-12-09T03:47:55.546Z,67218.53
2022-12-09T03:50:27.408Z,67230.13
2022-12-09T03:53:03.982Z,67208.84
2022-12-09T03:55:44.622Z,67214.63
2022-12-09T03:58:15.090Z,67217.22
2022-12-09T04:00:43.660Z,67210.88
2022-12-09T04:03:14.801Z,67209.00
2022-12-09T04:05:43.239Z,67207.31
2022-12-09T04:08:12.172Z,67204.84
2022-12-09T04:10:40.506Z,67200.41
2022-12-09T04:13:08.011Z,67207.50
2022-12-09T04:15:35.450Z,67218.53
2022-12-09T04:18:03.238Z,67219.66
2022-12-09T04:20:30.845Z,67216.50
2022-12-09T04:22:58.048Z,67216.31
2022-12-09T04:25:25.640Z,67217.22
2022-12-09T04:27:53.577Z,67215.94
2022-12-09T04:30:21.919Z,67215.94
2022-12-09T04:32:49.507Z,67220.22
2022-12-09T04:35:17.035Z,67208.84
2022-12-09T04:37:44.580Z,67220.56
2022-12-09T04:40:19.743Z,67224.72
2022-12-09T04:42:50.610Z,67221.22
2022-12-09T04:45:18.108Z,67223.59
2022-12-09T04:47:45.788Z,67222.47
2022-12-09T04:50:14.109Z,67223.38
2022-12-09T04:52:42.395Z,67219.31
2022-12-09T04:55:10.298Z,67228.44
2022-12-09T04:57:37.662Z,67227.19
2022-12-09T05:00:08.801Z,67231.81
2022-12-09T05:02:37.582Z,67233.72
2022-12-09T05:05:05.847Z,67238.78
2022-12-09T05:07:33.755Z,67228.53
2022-12-09T05:10:01.585Z,67235.97
2022-12-09T05:12:29.684Z,67226.41
2022-12-09T05:14:58.956Z,67232.59
2022-12-09T05:17:26.907Z,67227.53
2022-12-09T05:19:54.778Z,67227.31
2022-12-09T05:22:22.396Z,67216.84
2022-12-09T05:24:49.791Z,67210.88
2022-12-09T05:27:18.464Z,67216.63
2022-12-09T05:29:47.089Z,67209.34
2022-12-09T05:32:14.652Z,67213.06
2022-12-09T05:34:42.145Z,67213.84
2022-12-09T05:37:13.521Z,67217.63
2022-12-09T05:39:41.376Z,67223.03
2022-12-09T05:42:08.807Z,67224.72
2022-12-09T05:44:36.840Z,67215.94
2022-12-09T05:47:04.776Z,67217.22
2022-12-09T05:49:33.143Z,67211.78
2022-12-09T05:52:00.930Z,67211.22
2022-12-09T05:54:28.837Z,67209.00
2022-12-09T05:56:58.159Z,67203.22
2022-12-09T05:59:26.021Z,67201.69
2022-12-09T06:01:54.999Z,67202.78
2022-12-09T06:04:22.947Z,67197.94
2022-12-09T06:06:50.894Z,67193.81
2022-12-09T06:09:18.368Z,67200.34
2022-12-09T06:11:46.094Z,67201.47
2022-12-09T06:14:13.388Z,67196.06
2022-12-09T06:16:41.741Z,67190.44
2022-12-09T06:19:12.252Z,67189.66
2022-12-09T06:21:41.090Z,67183.72
2022-12-09T06:24:09.311Z,67189.31
2022-12-09T06:26:36.910Z,67185.25
2022-12-09T06:29:04.300Z,67189.88
2022-12-09T06:31:31.851Z,67190.44
2022-12-09T06:34:00.394Z,67188.41
2022-12-09T06:36:30.270Z,67191.78
2022-12-09T06:39:05.896Z,67197.19
2022-12-09T06:41:37.263Z,67193.81
2022-12-09T06:44:04.838Z,67191.56
2022-12-09T06:46:32.228Z,67192.13
2022-12-09T06:49:00.216Z,67198.09
2022-12-09T06:51:28.074Z,67198.53
2022-12-09T06:53:55.966Z,67203.56
2022-12-09T06:56:23.479Z,67196.06
2022-12-09T06:58:51.336Z,67193.25
2022-12-09T07:01:23.771Z,67209.53
2022-12-09T07:03:54.424Z,67219.88
2022-12-09T07:06:40.080Z,67215.59
2022-12-09T07:09:13.959Z,67225.16
2022-12-09T07:11:42.583Z,67227.53
2022-12-09T07:14:10.761Z,67219.88
2022-12-09T07:16:38.626Z,67220.78
2022-12-09T07:19:07.067Z,67221.34
2022-12-09T07:21:35.149Z,67221.56
2022-12-09T07:24:03.096Z,67224.16
2022-12-09T07:26:32.699Z,67221.56
2022-12-09T07:29:03.778Z,67226.59
2022-12-09T07:31:35.477Z,67227.75
2022-12-09T07:34:04.158Z,67234.47
2022-12-09T07:36:34.534Z,67239.19
2022-12-09T07:39:08.254Z,67235.06
2022-12-09T07:41:35.987Z,67243.06
2022-12-09T07:44:04.109Z,67239.00
2022-12-09T07:46:32.311Z,67252.47
2022-12-09T07:49:02.803Z,67255.63
2022-12-09T07:51:30.875Z,67261.03
2022-12-09T07:53:58.719Z,67265.75
2022-12-09T07:56:27.759Z,67273.44
2022-12-09T07:58:57.291Z,67264.06
2022-12-09T08:01:27.546Z,67265.75
2022-12-09T08:03:55.961Z,67266.53
2022-12-09T08:06:26.449Z,67291.63
2022-12-09T08:08:57.501Z,67304.56
2022-12-09T08:11:27.466Z,67305.53
2022-12-09T08:14:04.346Z,67319.41
2022-12-09T08:16:35.080Z,67316.56
2022-12-09T08:19:02.797Z,67329.88
2022-12-09T08:21:32.765Z,67326.91
2022-12-09T08:24:03.325Z,67331.00
2022-12-09T08:26:32.412Z,67330.78
2022-12-09T08:29:00.961Z,67340.00
2022-12-09T08:31:29.932Z,67340.56
2022-12-09T08:33:58.603Z,67335.16
2022-12-09T08:36:27.398Z,67343.38
2022-12-09T08:38:56.122Z,67337.75
2022-12-09T08:41:39.118Z,67341.34
2022-12-09T08:44:09.707Z,67340.19
2022-12-09T08:46:39.448Z,67318.41
2022-12-09T08:49:08.524Z,67330.63
2022-12-09T08:51:36.821Z,67328.19
2022-12-09T08:54:05.057Z,67323.91
2022-12-09T08:56:32.811Z,67327.63
2022-12-09T08:59:00.502Z,67330.63
2022-12-09T09:01:36.092Z,67319.97
2022-12-09T09:04:08.149Z,67327.97
2022-12-09T09:06:41.721Z,67328.19
2022-12-09T09:09:11.884Z,67342.25
2022-12-09T09:11:41.236Z,67346.75
2022-12-09T09:14:11.037Z,67346.53
2022-12-09T09:16:40.884Z,67348.78
2022-12-09T09:19:09.135Z,67348.44
2022-12-09T09:21:37.209Z,67356.88
2022-12-09T09:24:10.632Z,67353.16
2022-12-09T09:26:41.657Z,67369.25
2022-12-09T09:29:11.842Z,67377.53
2022-12-09T09:31:39.325Z,67389.72
2022-12-09T09:34:07.580Z,67403.59
2022-12-09T09:36:35.610Z,67396.25
2022-12-09T09:39:03.693Z,67412.59
2022-12-09T09:41:57.153Z,67415.81
2022-12-09T09:44:34.684Z,67404.00
2022-12-09T09:47:10.051Z,67403.81
2022-12-09T09:49:54.364Z,67408.84
2022-12-09T09:52:23.997Z,67414.28
2022-12-09T09:54:52.152Z,67440.91
2022-12-09T09:57:30.032Z,67443.00
2022-12-09T10:00:07.263Z,67464.97
2022-12-09T10:02:52.490Z,67474.53
2022-12-09T10:05:38.504Z,67520.91
2022-12-09T10:08:21.966Z,67573.34
2022-12-09T10:11:14.060Z,67562.25
2022-12-09T10:13:52.722Z,67563.53
2022-12-09T10:16:26.933Z,67526.56
2022-12-09T10:19:12.338Z,67497.63
2022-12-09T10:21:43.474Z,67484.47
2022-12-09T10:24:21.137Z,67501.78
2022-12-09T10:26:57.769Z,67506.06
2022-12-09T10:29:49.139Z,67482.97
2022-12-09T10:32:19.615Z,67473.75
2022-12-09T10:34:48.509Z,67440.94
2022-12-09T10:37:36.103Z,67439.63
2022-12-09T10:40:10.392Z,67424.41
2022-12-09T10:43:10.291Z,67408.09
2022-12-09T10:46:24.051Z,67403.59
2022-12-09T10:48:53.920Z,67387.84
2022-12-09T10:51:35.847Z,67373.00
2022-12-09T10:54:26.435Z,67376.38
2022-12-09T10:57:22.777Z,67368.56
2022-12-09T11:00:08.449Z,67377.13
2022-12-09T11:02:36.159Z,67372.41
2022-12-09T11:05:22.922Z,67383.34
2022-12-09T11:07:54.656Z,67405.84
2022-12-09T11:10:25.740Z,67424.19
2022-12-09T11:13:02.986Z,67445.97
2022-12-09T11:15:39.083Z,67444.47
2022-12-09T11:18:18.664Z,67447.50
2022-12-09T11:20:58.215Z,67427.81
2022-12-09T11:23:26.390Z,67438.50
2022-12-09T11:26:15.669Z,67433.44
2022-12-09T11:28:42.814Z,67407.53
2022-12-09T11:31:29.912Z,67421.03
2022-12-09T11:34:26.325Z,67406.41
2022-12-09T11:36:56.520Z,67420.13
2022-12-09T11:39:31.340Z,67423.88
2022-12-09T11:42:23.115Z,67434.34
2022-12-09T11:44:56.787Z,67459.31
2022-12-09T11:47:57.209Z,67459.31
2022-12-09T11:50:23.922Z,67487.69
2022-12-09T11:53:29.410Z,67488.59
2022-12-09T11:56:04.108Z,67495.00
2022-12-09T11:58:38.650Z,67510.94
2022-12-09T12:01:13.157Z,67492.22
2022-12-09T12:03:47.867Z,67473.06
2022-12-09T12:06:21.588Z,67492.56
2022-12-09T12:08:59.172Z,67483.69
2022-12-09T12:11:34.520Z,67523.53
2022-12-09T12:14:14.947Z,67547.41
2022-12-09T12:17:02.243Z,67535.72
2022-12-09T12:19:32.469Z,67547.00
2022-12-09T12:22:47.987Z,67525.81
2022-12-09T12:25:32.532Z,67492.56
2022-12-09T12:28:50.485Z,67471.38
2022-12-09T12:31:41.397Z,67464.59
2022-12-09T12:34:27.979Z,67463.69
2022-12-09T12:37:00.376Z,67481.31
2022-12-09T12:39:50.047Z,67487.84
2022-12-09T12:42:25.992Z,67486.91
2022-12-09T12:45:31.282Z,67513.59
2022-12-09T12:48:04.813Z,67517.56
2022-12-09T12:51:00.253Z,67520.91
2022-12-09T12:53:44.650Z,67540.06
2022-12-09T12:56:23.356Z,67520.72
2022-12-09T12:59:04.401Z,67525.22
2022-12-09T13:01:31.597Z,67523.19
2022-12-09T13:04:11.197Z,67501.19
2022-12-09T13:06:59.978Z,67514.53
2022-12-09T13:10:01.548Z,67487.28
2022-12-09T13:13:01.738Z,67449.75
2022-12-09T13:15:40.322Z,67445.25
2022-12-09T13:18:14.446Z,67421.03
2022-12-09T13:20:51.865Z,67389.94
2022-12-09T13:23:37.682Z,67383.91
2022-12-09T13:26:26.130Z,67378.47
2022-12-09T13:29:25.886Z,67370.16
2022-12-09T13:32:14.153Z,67367.38
2022-12-09T13:34:53.025Z,67369.25
2022-12-09T13:37:41.775Z,67381.66
2022-12-09T13:40:38.802Z,67375.44
2022-12-09T13:43:12.142Z,67378.03
2022-12-09T13:45:42.301Z,67356.66
2022-12-09T13:48:17.038Z,67344.34
2022-12-09T13:50:57.521Z,67346.19
2022-12-09T13:53:44.195Z,67334.59
2022-12-09T13:56:27.095Z,67340.91
2022-12-09T13:59:03.055Z,67330.06
2022-12-09T14:01:54.776Z,67330.63
2022-12-09T14:04:29.417Z,67341.47
2022-12-09T14:07:27.185Z,67326.50
2022-12-09T14:09:57.110Z,67318.97
2022-12-09T14:12:34.095Z,67304.91
2022-12-09T14:15:05.376Z,67293.66
2022-12-09T14:17:38.167Z,67282.06
2022-12-09T14:20:34.143Z,67271.59
2022-12-09T14:23:07.530Z,67272.50
2022-12-09T14:25:34.679Z,67287.28
2022-12-09T14:28:14.005Z,67283.00
2022-12-09T14:30:47.103Z,67290.84
2022-12-09T14:33:37.719Z,67275.53
2022-12-09T14:36:14.142Z,67277.22
2022-12-09T14:39:07.901Z,67274.75
2022-12-09T14:41:39.861Z,67283.19
2022-12-09T14:44:27.031Z,67285.66
2022-12-09T14:47:15.306Z,67279.25
2022-12-09T14:49:48.935Z,67276.66
2022-12-09T14:52:29.507Z,67269.13
2022-12-09T14:55:02.181Z,67259.38
2022-12-09T14:57:44.056Z,67250.00
2022-12-09T15:00:32.541Z,67256.78
2022-12-09T15:06:01.253Z,67259.22
2022-12-09T15:08:29.768Z,67267.09
2022-12-09T15:10:57.770Z,67267.25
2022-12-09T15:13:25.454Z,67254.91
2022-12-09T15:15:52.763Z,67244.81
2022-12-09T15:18:26.870Z,67251.16
2022-12-09T15:20:57.566Z,67237.31
2022-12-09T15:23:27.899Z,67241.00
2022-12-09T15:25:57.968Z,67229.22
2022-12-09T15:28:28.208Z,67229.78
2022-12-09T15:31:07.235Z,67242.66
2022-12-09T15:33:44.728Z,67229.56
2022-12-09T15:36:22.667Z,67213.34
2022-12-09T15:39:06.996Z,67210.47
2022-12-09T15:42:09.447Z,67197.94
2022-12-09T15:44:53.447Z,67193.47
2022-12-09T15:47:29.518Z,67188.75
2022-12-09T15:50:11.226Z,67187.97
2022-12-09T15:52:48.995Z,67189.09
2022-12-09T15:55:32.589Z,67173.81
2022-12-09T15:58:03.843Z,67184.25
2022-12-09T16:00:31.121Z,67175.81
2022-12-09T16:02:58.708Z,67176.19
2022-12-09T16:05:26.131Z,67175.81
2022-12-09T16:07:59.022Z,67180.34
2022-12-09T16:10:27.519Z,67179.75
2022-12-09T16:13:10.964Z,67183.91
2022-12-09T16:15:52.954Z,67194.72
2022-12-09T16:18:42.349Z,67194.00
2022-12-09T16:21:15.723Z,67200.53
2022-12-09T16:23:45.673Z,67209.00
2022-12-09T16:26:32.735Z,67204.28
2022-12-09T16:29:04.759Z,67199.78
2022-12-09T16:31:32.622Z,67193.25
2022-12-09T16:33:59.991Z,67199.78
2022-12-09T16:36:31.997Z,67193.81
2022-12-09T16:39:08.148Z,67187.84
2022-12-09T16:41:53.650Z,67202.25
2022-12-09T16:44:29.320Z,67198.31
2022-12-09T16:47:25.058Z,67195.50
2022-12-09T16:49:52.967Z,67205.41
2022-12-09T16:52:24.105Z,67197.53
2022-12-09T16:54:51.771Z,67194.94
2022-12-09T16:57:20.157Z,67191.34
2022-12-09T16:59:48.277Z,67175.81
2022-12-09T17:02:24.254Z,67179.56
2022-12-09T17:04:52.180Z,67187.47
2022-12-09T17:07:19.366Z,67186.72
2022-12-09T17:09:46.495Z,67202.59
2022-12-09T17:12:13.797Z,67200.91
2022-12-09T17:14:41.131Z,67194.38
2022-12-09T17:17:08.399Z,67198.84
2022-12-09T17:19:35.765Z,67193.94
2022-12-09T17:22:03.293Z,67197.94
2022-12-09T17:24:30.585Z,67197.94
2022-12-09T17:26:57.856Z,67198.31
2022-12-09T17:29:25.195Z,67209.00
2022-12-09T17:31:52.532Z,67211.78
2022-12-09T17:34:21.113Z,67210.88
2022-12-09T17:36:48.470Z,67214.38
2022-12-09T17:39:16.263Z,67213.47
2022-12-09T17:41:43.521Z,67210.69
2022-12-09T17:44:10.795Z,67203.38
2022-12-09T17:46:38.003Z,67203.72
2022-12-09T17:49:05.236Z,67192.69
2022-12-09T17:51:35.988Z,67189.66
2022-12-09T17:54:04.621Z,67183.72
2022-12-09T17:56:32.177Z,67180.09
2022-12-09T17:59:10.126Z,67177.50
2022-12-09T18:01:38.893Z,67162.91
2022-12-09T18:04:09.725Z,67162.91
2022-12-09T18:06:39.631Z,67162.91
2022-12-09T18:09:09.227Z,67163.47
2022-12-09T18:11:36.899Z,67173.72
2022-12-09T18:14:04.805Z,67174.16
2022-12-09T18:16:32.492Z,67174.72
2022-12-09T18:19:12.049Z,67172.09
2022-12-09T18:21:39.529Z,67180.34
2022-12-09T18:24:07.125Z,67180.88
2022-12-09T18:26:41.072Z,67176.94
2022-12-09T18:29:10.208Z,67173.03
2022-12-09T18:31:38.623Z,67167.41
2022-12-09T18:34:06.070Z,67166.84
2022-12-09T18:36:34.846Z,67170.41
2022-12-09T18:39:02.216Z,67172.59
2022-12-09T18:41:31.329Z,67165.72
2022-12-09T18:44:02.502Z,67160.31
2022-12-09T18:46:33.567Z,67164.94
2022-12-09T18:49:07.354Z,67157.28
2022-12-09T18:51:35.272Z,67163.59
2022-12-09T18:54:04.007Z,67152.78
2022-12-09T18:56:32.028Z,67149.06
2022-12-09T18:59:08.678Z,67156.16
2022-12-09T19:01:40.785Z,67156.16
2022-12-09T19:04:14.990Z,67147.75
2022-12-09T19:06:45.117Z,67147.31
2022-12-09T19:09:16.109Z,67140.78
2022-12-09T19:11:44.996Z,67133.56
2022-12-09T19:14:14.058Z,67144.38
2022-12-09T19:16:42.471Z,67151.69
2022-12-09T19:19:13.870Z,67120.97
2022-12-09T19:21:42.200Z,67144.94
2022-12-09T19:24:18.143Z,67153.16
2022-12-09T19:26:45.562Z,67156.53
2022-12-09T19:29:13.871Z,67146.63
2022-12-09T19:31:46.123Z,67140.44
2022-12-09T19:34:15.422Z,67145.50
2022-12-09T19:36:43.812Z,67145.50
2022-12-09T19:39:13.218Z,67152.22
2022-12-09T19:41:41.430Z,67147.38
2022-12-09T19:44:44.414Z,67153.00
2022-12-09T19:47:10.008Z,67158.75
2022-12-09T19:49:37.717Z,67157.06
2022-12-09T19:52:04.908Z,67155.06
2022-12-09T19:54:32.144Z,67151.13
2022-12-09T19:57:00.187Z,67160.25
2022-12-09T19:59:28.464Z,67154.47
2022-12-09T20:01:55.947Z,67152.03
2022-12-09T20:07:16.606Z,67156.31
2022-12-09T20:09:44.621Z,67150.75
2022-12-09T20:12:11.959Z,67153.91
2022-12-09T20:14:39.393Z,67155.25
2022-12-09T20:17:07.021Z,67157.84
2022-12-09T20:19:35.878Z,67162.34
2022-12-09T20:22:03.130Z,67172.66
2022-12-09T20:24:30.810Z,67164.81
2022-12-09T20:26:58.145Z,67169.09
2022-12-09T20:29:25.530Z,67176.94
2022-12-09T20:31:53.261Z,67182.34
2022-12-09T20:34:20.962Z,67174.16
2022-12-09T20:36:48.680Z,67177.16
2022-12-09T20:39:20.950Z,67178.66
2022-12-09T20:41:48.915Z,67184.47
2022-12-09T20:44:17.403Z,67180.34
2022-12-09T20:46:48.206Z,67171.19
2022-12-09T20:49:16.655Z,67167.97
2022-12-09T20:51:46.021Z,67167.75
2022-12-09T20:54:13.816Z,67164.81
2022-12-09T20:56:41.123Z,67166.06
2022-12-09T20:59:10.594Z,67169.09
2022-12-09T21:01:38.802Z,67162.91
2022-12-09T21:04:07.047Z,67159.53
2022-12-09T21:06:37.507Z,67166.84
2022-12-09T21:09:08.025Z,67156.94
2022-12-09T21:12:35.138Z,67151.69
2022-12-09T21:15:03.008Z,67149.28
2022-12-09T21:17:30.230Z,67158.75
2022-12-09T21:19:57.626Z,67155.06
2022-12-09T21:22:24.919Z,67148.72
2022-12-09T21:24:52.118Z,67156.38
2022-12-09T21:27:19.270Z,67165.16
2022-12-09T21:29:46.610Z,67142.69
2022-12-09T21:32:13.725Z,67153.00
2022-12-09T21:34:41.065Z,67147.31
2022-12-09T21:37:08.333Z,67142.69
2022-12-09T21:39:35.543Z,67136.16
2022-12-09T21:42:02.932Z,67139.53
2022-12-09T21:44:30.113Z,67141.78
2022-12-09T21:46:57.278Z,67141.00
2022-12-09T21:49:24.523Z,67137.84
2022-12-09T21:51:52.176Z,67143.59
2022-12-09T21:54:19.457Z,67145.50
2022-12-09T21:56:48.775Z,67139.31
2022-12-09T21:59:16.019Z,67137.63
2022-12-09T22:01:43.778Z,67142.69
2022-12-09T22:04:12.179Z,67137.63
2022-12-09T22:06:41.477Z,67132.56
2022-12-09T22:09:09.082Z,67127.16
2022-12-09T22:11:38.098Z,67133.84
2022-12-09T22:14:07.238Z,67118.75
2022-12-09T22:16:40.508Z,67119.53
2022-12-09T22:19:08.905Z,67125.06
2022-12-09T22:21:36.917Z,67112.00
2022-12-09T22:24:06.426Z,67115.38
2022-12-09T22:26:33.889Z,67117.97
2022-12-09T22:29:03.172Z,67126.53
2022-12-09T22:31:34.051Z,67116.63
2022-12-09T22:34:04.707Z,67123.03
2022-12-09T22:36:32.274Z,67119.47
2022-12-09T22:38:59.528Z,67120.56
2022-12-09T22:41:28.311Z,67124.72
2022-12-09T22:43:56.568Z,67124.13
2022-12-09T22:46:29.424Z,67124.72
2022-12-09T22:48:59.818Z,67133.13
2022-12-09T22:51:29.757Z,67130.13
2022-12-09T22:53:58.851Z,67129.56
2022-12-09T22:56:26.505Z,67120.78
2022-12-09T22:58:54.172Z,67123.03
2022-12-09T23:01:25.716Z,67122.13
2022-12-09T23:03:54.950Z,67125.28
2022-12-09T23:06:23.243Z,67124.38
2022-12-09T23:08:50.382Z,67125.50
2022-12-09T23:11:22.940Z,67136.66
2022-12-09T23:13:50.557Z,67132.94
2022-12-09T23:16:21.071Z,67121.34
2022-12-09T23:18:49.806Z,67129.56
2022-12-09T23:21:19.797Z,67118.75
2022-12-09T23:23:47.483Z,67129.56
2022-12-09T23:26:17.860Z,67114.59
2022-12-09T23:28:47.818Z,67122.25
2022-12-09T23:31:16.664Z,67116.09
2022-12-09T23:33:46.108Z,67118.53
2022-12-09T23:36:19.414Z,67114.03
2022-12-09T23:38:50.460Z,67111.44
2022-12-09T23:41:19.413Z,67119.66
2022-12-09T23:43:48.253Z,67126.97
2022-12-09T23:46:17.853Z,67104.91
2022-12-09T23:48:46.329Z,67108.06
2022-12-09T23:51:19.681Z,67109.91
2022-12-09T23:53:48.408Z,67099.66
2022-12-09T23:56:18.478Z,67112.16
2022-12-09T23:58:46.667Z,67112.34
